Minneapolis-St Paul International/Wold-Chamberlain Airport
KMSP : rendu visible

Aérodrome :











RETROUVEZ-NOUS SUR...

 
LOGIN :

S'inscrire | Disclaimer

   EN    FR    IT 

 









Légende :    VFR   VFR Marginal   IFR   IFR Intensif   IFR Très Intensif
Visi : 
Plafond : 
>= 8 km
>= 3000ft
5 à 8 km
1000 à 3000 ft
1500m à 5 km
500 à 1000 ft
800 à 1500m
200 à 500 ft
< 800m
< 200 ft
Symboles :   Orages  Brouillard  Fortes neiges  Fortes précipitations  Vent > 20 kt






- Altitude de l'aérodrome : 841 ft
- Code IATA : MSP


KMSP - Minneapolis-St Paul International/Wold-Chamberlain

DERNIER METAR :
  • 270300Z 04007KT 4SM BR OVC005 M03/M04 A2995 RMK AO2 T10331044

METARs EXPIRÉS :
  • 270248Z 03006KT 3SM BR OVC004 M03/M04 A2994 RMK AO2
  • 270153Z 04005KT 4SM BR OVC007 M03/M04 A2994 RMK AO2 SLP150 T10281044
  • 270121Z 06006KT 5SM BR OVC009 M02/M04 A2993 RMK AO2 T10221044
  • 270053Z 06005KT 5SM BR OVC011 M02/M04 A2993 RMK AO2 SLP147 T10221044

TAF KMSP
Valide du 27 à 03h jusqu'au 28 à 06h UTC


270313Z 2703/2806 36004KT 4SM BR OVC006
FM271600 32005KT P6SM OVC008
FM272000 31004KT P6SM OVC015



MET'MAP, la Météo Aéronautique d'un coup d'oeil ! - Copyright ORBIFLY Décembre 2007 - Disclaimer

ORBIFLY MET'MAP TEAM :

Programmation & Développement : Alexandra Zaïnal
Sur une idée originale de : Baudouin d'Aumeries
Assistance à la programmation : Marc-Olivier Méhu
Soutien technique & logistique : Manuel Goepfert

Contact : metmap@orbifly.com




SOURCES & CREDITS :

   NOAA       Earth
Advisory